sensor_id;sensor_type;location;lat;lon;timestamp;P1;durP1;ratioP1;P2;durP2;ratioP2
69463;SDS011;56665;41.106;16.688;2024-01-07T00:00:15;18.73;;;7.15;;
69463;SDS011;56665;41.106;16.688;2024-01-07T00:03:20;17.55;;;7.25;;
69463;SDS011;56665;41.106;16.688;2024-01-07T00:06:24;20.50;;;6.43;;
69463;SDS011;56665;41.106;16.688;2024-01-07T00:09:27;17.55;;;8.50;;
69463;SDS011;56665;41.106;16.688;2024-01-07T00:12:31;21.58;;;8.30;;
69463;SDS011;56665;41.106;16.688;2024-01-07T00:15:35;17.20;;;6.95;;
69463;SDS011;56665;41.106;16.688;2024-01-07T00:18:39;18.25;;;7.70;;
69463;SDS011;56665;41.106;16.688;2024-01-07T00:21:43;18.37;;;6.77;;
69463;SDS011;56665;41.106;16.688;2024-01-07T00:24:46;17.02;;;7.50;;
69463;SDS011;56665;41.106;16.688;2024-01-07T00:27:50;13.00;;;6.03;;
69463;SDS011;56665;41.106;16.688;2024-01-07T00:30:55;13.23;;;5.80;;
69463;SDS011;56665;41.106;16.688;2024-01-07T00:33:58;14.93;;;6.47;;
69463;SDS011;56665;41.106;16.688;2024-01-07T00:37:02;14.13;;;5.60;;
69463;SDS011;56665;41.106;16.688;2024-01-07T00:40:06;19.58;;;6.10;;
69463;SDS011;56665;41.106;16.688;2024-01-07T00:43:11;14.10;;;5.13;;
69463;SDS011;56665;41.106;16.688;2024-01-07T00:46:15;15.13;;;5.10;;
69463;SDS011;56665;41.106;16.688;2024-01-07T00:49:18;13.73;;;5.10;;
69463;SDS011;56665;41.106;16.688;2024-01-07T00:52:22;11.67;;;4.60;;
69463;SDS011;56665;41.106;16.688;2024-01-07T00:55:26;13.27;;;4.40;;
69463;SDS011;56665;41.106;16.688;2024-01-07T00:58:30;13.27;;;3.80;;
69463;SDS011;56665;41.106;16.688;2024-01-07T01:01:34;10.65;;;3.72;;
69463;SDS011;56665;41.106;16.688;2024-01-07T01:04:38;9.98;;;3.83;;
69463;SDS011;56665;41.106;16.688;2024-01-07T01:07:43;9.07;;;3.80;;
69463;SDS011;56665;41.106;16.688;2024-01-07T01:10:47;9.77;;;3.60;;
69463;SDS011;56665;41.106;16.688;2024-01-07T01:13:51;13.10;;;4.20;;
69463;SDS011;56665;41.106;16.688;2024-01-07T01:16:54;15.52;;;4.50;;
69463;SDS011;56665;41.106;16.688;2024-01-07T01:19:58;10.45;;;4.38;;
69463;SDS011;56665;41.106;16.688;2024-01-07T01:23:02;15.93;;;4.50;;
69463;SDS011;56665;41.106;16.688;2024-01-07T01:26:06;12.63;;;4.68;;
69463;SDS011;56665;41.106;16.688;2024-01-07T01:29:10;13.98;;;4.70;;
69463;SDS011;56665;41.106;16.688;2024-01-07T01:32:13;12.40;;;5.30;;
69463;SDS011;56665;41.106;16.688;2024-01-07T01:35:17;12.52;;;4.68;;
69463;SDS011;56665;41.106;16.688;2024-01-07T01:38:21;10.60;;;4.20;;
69463;SDS011;56665;41.106;16.688;2024-01-07T01:41:25;14.02;;;4.60;;
69463;SDS011;56665;41.106;16.688;2024-01-07T01:44:28;11.65;;;4.35;;
69463;SDS011;56665;41.106;16.688;2024-01-07T01:47:34;12.95;;;4.20;;
69463;SDS011;56665;41.106;16.688;2024-01-07T01:50:38;8.07;;;3.83;;
69463;SDS011;56665;41.106;16.688;2024-01-07T01:53:41;10.60;;;3.77;;
69463;SDS011;56665;41.106;16.688;2024-01-07T01:56:45;13.25;;;3.88;;
69463;SDS011;56665;41.106;16.688;2024-01-07T01:59:51;15.45;;;4.25;;
69463;SDS011;56665;41.106;16.688;2024-01-07T02:02:55;9.43;;;3.30;;
69463;SDS011;56665;41.106;16.688;2024-01-07T02:05:59;10.77;;;3.90;;
69463;SDS011;56665;41.106;16.688;2024-01-07T02:09:03;11.70;;;3.90;;
69463;SDS011;56665;41.106;16.688;2024-01-07T02:12:06;11.75;;;3.97;;
69463;SDS011;56665;41.106;16.688;2024-01-07T02:15:15;13.70;;;3.85;;
69463;SDS011;56665;41.106;16.688;2024-01-07T02:18:19;16.05;;;4.28;;
69463;SDS011;56665;41.106;16.688;2024-01-07T02:21:23;14.95;;;3.90;;
69463;SDS011;56665;41.106;16.688;2024-01-07T02:24:27;12.10;;;3.60;;
69463;SDS011;56665;41.106;16.688;2024-01-07T02:27:30;14.55;;;4.47;;
69463;SDS011;56665;41.106;16.688;2024-01-07T02:30:34;11.15;;;4.28;;
69463;SDS011;56665;41.106;16.688;2024-01-07T02:33:38;16.00;;;4.63;;
69463;SDS011;56665;41.106;16.688;2024-01-07T02:36:42;14.45;;;4.40;;
69463;SDS011;56665;41.106;16.688;2024-01-07T02:39:45;10.90;;;4.60;;
69463;SDS011;56665;41.106;16.688;2024-01-07T02:42:49;12.68;;;4.85;;
69463;SDS011;56665;41.106;16.688;2024-01-07T02:45:53;15.05;;;5.00;;
69463;SDS011;56665;41.106;16.688;2024-01-07T02:48:57;12.40;;;4.43;;
69463;SDS011;56665;41.106;16.688;2024-01-07T02:52:01;12.73;;;3.88;;
69463;SDS011;56665;41.106;16.688;2024-01-07T02:55:05;11.67;;;3.73;;
69463;SDS011;56665;41.106;16.688;2024-01-07T02:58:08;10.65;;;3.65;;
69463;SDS011;56665;41.106;16.688;2024-01-07T03:01:12;11.75;;;3.90;;
69463;SDS011;56665;41.106;16.688;2024-01-07T03:04:17;14.55;;;4.93;;
69463;SDS011;56665;41.106;16.688;2024-01-07T03:07:21;14.63;;;5.80;;
69463;SDS011;56665;41.106;16.688;2024-01-07T03:10:25;16.50;;;6.37;;
69463;SDS011;56665;41.106;16.688;2024-01-07T03:13:28;15.95;;;5.95;;
69463;SDS011;56665;41.106;16.688;2024-01-07T03:16:32;15.80;;;5.40;;
69463;SDS011;56665;41.106;16.688;2024-01-07T03:19:39;15.20;;;5.05;;
69463;SDS011;56665;41.106;16.688;2024-01-07T03:22:43;15.98;;;4.88;;
69463;SDS011;56665;41.106;16.688;2024-01-07T03:25:47;15.23;;;4.47;;
69463;SDS011;56665;41.106;16.688;2024-01-07T03:28:51;11.90;;;3.83;;
69463;SDS011;56665;41.106;16.688;2024-01-07T03:31:55;10.63;;;4.10;;
69463;SDS011;56665;41.106;16.688;2024-01-07T03:34:58;15.10;;;5.93;;
69463;SDS011;56665;41.106;16.688;2024-01-07T03:38:02;12.98;;;4.32;;
69463;SDS011;56665;41.106;16.688;2024-01-07T03:41:06;10.20;;;4.50;;
69463;SDS011;56665;41.106;16.688;2024-01-07T03:44:10;13.43;;;4.50;;
69463;SDS011;56665;41.106;16.688;2024-01-07T03:47:14;17.60;;;5.00;;
69463;SDS011;56665;41.106;16.688;2024-01-07T03:50:18;13.32;;;4.97;;
69463;SDS011;56665;41.106;16.688;2024-01-07T03:53:22;13.73;;;4.70;;
69463;SDS011;56665;41.106;16.688;2024-01-07T03:56:26;12.60;;;4.37;;
69463;SDS011;56665;41.106;16.688;2024-01-07T03:59:30;11.85;;;3.90;;
69463;SDS011;56665;41.106;16.688;2024-01-07T04:02:34;12.52;;;3.97;;
69463;SDS011;56665;41.106;16.688;2024-01-07T04:05:38;16.15;;;4.25;;
69463;SDS011;56665;41.106;16.688;2024-01-07T04:08:41;14.07;;;4.55;;
69463;SDS011;56665;41.106;16.688;2024-01-07T04:11:45;16.50;;;4.60;;
69463;SDS011;56665;41.106;16.688;2024-01-07T04:14:50;12.50;;;3.92;;
69463;SDS011;56665;41.106;16.688;2024-01-07T04:17:53;13.68;;;4.32;;
69463;SDS011;56665;41.106;16.688;2024-01-07T04:20:57;13.32;;;4.47;;
69463;SDS011;56665;41.106;16.688;2024-01-07T04:24:01;16.30;;;4.50;;
69463;SDS011;56665;41.106;16.688;2024-01-07T04:27:05;15.83;;;5.27;;
69463;SDS011;56665;41.106;16.688;2024-01-07T04:30:09;13.77;;;5.38;;
69463;SDS011;56665;41.106;16.688;2024-01-07T04:33:13;12.35;;;5.30;;
69463;SDS011;56665;41.106;16.688;2024-01-07T04:36:17;11.00;;;4.05;;
69463;SDS011;56665;41.106;16.688;2024-01-07T04:39:20;11.23;;;4.20;;
69463;SDS011;56665;41.106;16.688;2024-01-07T04:42:24;12.13;;;5.37;;
69463;SDS011;56665;41.106;16.688;2024-01-07T04:45:27;14.02;;;5.35;;
69463;SDS011;56665;41.106;16.688;2024-01-07T04:48:31;13.18;;;5.10;;
69463;SDS011;56665;41.106;16.688;2024-01-07T04:51:35;14.52;;;5.53;;
69463;SDS011;56665;41.106;16.688;2024-01-07T04:54:41;15.90;;;6.05;;
69463;SDS011;56665;41.106;16.688;2024-01-07T04:57:44;26.23;;;8.30;;
69463;SDS011;56665;41.106;16.688;2024-01-07T05:00:48;19.55;;;6.65;;
69463;SDS011;56665;41.106;16.688;2024-01-07T05:03:52;17.40;;;5.05;;
69463;SDS011;56665;41.106;16.688;2024-01-07T05:06:56;13.30;;;4.53;;
69463;SDS011;56665;41.106;16.688;2024-01-07T05:09:59;12.70;;;4.78;;
69463;SDS011;56665;41.106;16.688;2024-01-07T05:13:03;12.43;;;4.63;;
69463;SDS011;56665;41.106;16.688;2024-01-07T05:16:09;8.48;;;3.53;;
69463;SDS011;56665;41.106;16.688;2024-01-07T05:19:20;11.70;;;4.70;;
69463;SDS011;56665;41.106;16.688;2024-01-07T05:22:24;12.30;;;4.90;;
69463;SDS011;56665;41.106;16.688;2024-01-07T05:25:28;10.60;;;4.88;;
69463;SDS011;56665;41.106;16.688;2024-01-07T05:28:32;13.03;;;5.23;;
69463;SDS011;56665;41.106;16.688;2024-01-07T05:31:35;11.57;;;6.15;;
69463;SDS011;56665;41.106;16.688;2024-01-07T05:34:39;12.75;;;5.88;;
69463;SDS011;56665;41.106;16.688;2024-01-07T05:37:43;12.13;;;5.70;;
69463;SDS011;56665;41.106;16.688;2024-01-07T05:40:47;10.63;;;5.50;;
69463;SDS011;56665;41.106;16.688;2024-01-07T05:43:51;14.07;;;6.10;;
69463;SDS011;56665;41.106;16.688;2024-01-07T05:46:54;10.93;;;5.68;;
69463;SDS011;56665;41.106;16.688;2024-01-07T05:49:58;13.45;;;5.90;;
69463;SDS011;56665;41.106;16.688;2024-01-07T05:53:02;11.45;;;4.78;;
69463;SDS011;56665;41.106;16.688;2024-01-07T05:56:06;8.48;;;5.35;;
69463;SDS011;56665;41.106;16.688;2024-01-07T05:59:10;11.00;;;5.37;;
69463;SDS011;56665;41.106;16.688;2024-01-07T06:02:14;10.98;;;5.72;;
69463;SDS011;56665;41.106;16.688;2024-01-07T06:05:17;14.10;;;5.63;;
69463;SDS011;56665;41.106;16.688;2024-01-07T06:08:21;12.57;;;5.53;;
69463;SDS011;56665;41.106;16.688;2024-01-07T06:11:25;11.27;;;5.65;;
69463;SDS011;56665;41.106;16.688;2024-01-07T06:14:28;11.87;;;5.50;;
69463;SDS011;56665;41.106;16.688;2024-01-07T06:17:32;17.60;;;7.68;;
69463;SDS011;56665;41.106;16.688;2024-01-07T06:20:36;15.95;;;8.25;;
69463;SDS011;56665;41.106;16.688;2024-01-07T06:23:40;19.08;;;9.35;;
69463;SDS011;56665;41.106;16.688;2024-01-07T06:26:43;19.88;;;11.15;;
69463;SDS011;56665;41.106;16.688;2024-01-07T06:29:47;20.77;;;11.53;;
69463;SDS011;56665;41.106;16.688;2024-01-07T06:32:52;30.23;;;17.15;;
69463;SDS011;56665;41.106;16.688;2024-01-07T06:35:55;45.65;;;22.33;;
69463;SDS011;56665;41.106;16.688;2024-01-07T06:38:59;50.15;;;23.88;;
69463;SDS011;56665;41.106;16.688;2024-01-07T06:42:03;45.88;;;22.17;;
69463;SDS011;56665;41.106;16.688;2024-01-07T06:45:07;41.40;;;20.13;;
69463;SDS011;56665;41.106;16.688;2024-01-07T06:48:12;37.55;;;17.55;;
69463;SDS011;56665;41.106;16.688;2024-01-07T06:51:15;24.63;;;11.93;;
69463;SDS011;56665;41.106;16.688;2024-01-07T06:54:19;23.40;;;11.80;;
69463;SDS011;56665;41.106;16.688;2024-01-07T06:57:23;20.10;;;11.00;;
69463;SDS011;56665;41.106;16.688;2024-01-07T07:00:26;22.43;;;12.07;;
69463;SDS011;56665;41.106;16.688;2024-01-07T07:03:30;27.33;;;13.50;;
69463;SDS011;56665;41.106;16.688;2024-01-07T07:06:34;27.05;;;13.40;;
69463;SDS011;56665;41.106;16.688;2024-01-07T07:09:38;25.92;;;12.55;;
69463;SDS011;56665;41.106;16.688;2024-01-07T07:12:42;27.95;;;15.88;;
69463;SDS011;56665;41.106;16.688;2024-01-07T07:15:45;39.53;;;20.87;;
69463;SDS011;56665;41.106;16.688;2024-01-07T07:18:49;31.65;;;18.67;;
69463;SDS011;56665;41.106;16.688;2024-01-07T07:21:53;29.05;;;18.23;;
69463;SDS011;56665;41.106;16.688;2024-01-07T07:24:56;27.88;;;17.10;;
69463;SDS011;56665;41.106;16.688;2024-01-07T07:28:00;27.95;;;16.25;;
69463;SDS011;56665;41.106;16.688;2024-01-07T07:31:04;25.57;;;14.97;;
69463;SDS011;56665;41.106;16.688;2024-01-07T07:34:08;22.10;;;13.30;;
69463;SDS011;56665;41.106;16.688;2024-01-07T07:37:13;21.98;;;13.23;;
69463;SDS011;56665;41.106;16.688;2024-01-07T07:40:17;22.25;;;13.50;;
69463;SDS011;56665;41.106;16.688;2024-01-07T07:43:20;29.88;;;17.30;;
69463;SDS011;56665;41.106;16.688;2024-01-07T07:46:24;20.27;;;13.67;;
69463;SDS011;56665;41.106;16.688;2024-01-07T07:49:28;19.55;;;11.77;;
69463;SDS011;56665;41.106;16.688;2024-01-07T07:52:32;22.27;;;12.10;;
69463;SDS011;56665;41.106;16.688;2024-01-07T07:55:36;18.75;;;10.75;;
69463;SDS011;56665;41.106;16.688;2024-01-07T07:58:39;18.10;;;10.43;;
69463;SDS011;56665;41.106;16.688;2024-01-07T08:01:43;17.63;;;10.80;;
69463;SDS011;56665;41.106;16.688;2024-01-07T08:04:49;19.98;;;11.93;;
69463;SDS011;56665;41.106;16.688;2024-01-07T08:07:53;23.45;;;12.88;;
69463;SDS011;56665;41.106;16.688;2024-01-07T08:10:58;20.80;;;11.90;;
69463;SDS011;56665;41.106;16.688;2024-01-07T08:14:02;22.00;;;11.63;;
69463;SDS011;56665;41.106;16.688;2024-01-07T08:17:06;20.70;;;12.20;;
69463;SDS011;56665;41.106;16.688;2024-01-07T08:20:11;25.80;;;13.57;;
69463;SDS011;56665;41.106;16.688;2024-01-07T08:23:15;29.42;;;15.45;;
69463;SDS011;56665;41.106;16.688;2024-01-07T08:26:19;23.73;;;13.18;;
69463;SDS011;56665;41.106;16.688;2024-01-07T08:29:23;22.80;;;11.52;;
69463;SDS011;56665;41.106;16.688;2024-01-07T08:32:27;19.17;;;9.77;;
69463;SDS011;56665;41.106;16.688;2024-01-07T08:35:31;15.43;;;9.98;;
69463;SDS011;56665;41.106;16.688;2024-01-07T08:38:34;13.98;;;8.80;;
69463;SDS011;56665;41.106;16.688;2024-01-07T08:41:38;16.48;;;9.30;;
69463;SDS011;56665;41.106;16.688;2024-01-07T08:44:42;17.27;;;10.15;;
69463;SDS011;56665;41.106;16.688;2024-01-07T08:47:46;14.07;;;8.73;;
69463;SDS011;56665;41.106;16.688;2024-01-07T08:50:49;15.75;;;10.90;;
69463;SDS011;56665;41.106;16.688;2024-01-07T08:53:54;16.25;;;9.25;;
69463;SDS011;56665;41.106;16.688;2024-01-07T08:56:58;16.02;;;9.65;;
69463;SDS011;56665;41.106;16.688;2024-01-07T09:00:02;15.52;;;9.00;;
69463;SDS011;56665;41.106;16.688;2024-01-07T09:03:08;15.40;;;9.27;;
69463;SDS011;56665;41.106;16.688;2024-01-07T09:06:12;12.75;;;7.97;;
69463;SDS011;56665;41.106;16.688;2024-01-07T09:09:16;16.23;;;8.27;;
69463;SDS011;56665;41.106;16.688;2024-01-07T09:12:20;19.52;;;9.40;;
69463;SDS011;56665;41.106;16.688;2024-01-07T09:15:24;17.52;;;9.23;;
69463;SDS011;56665;41.106;16.688;2024-01-07T09:18:27;16.63;;;8.93;;
69463;SDS011;56665;41.106;16.688;2024-01-07T09:24:43;12.98;;;7.03;;
69463;SDS011;56665;41.106;16.688;2024-01-07T09:27:46;11.15;;;6.70;;
69463;SDS011;56665;41.106;16.688;2024-01-07T09:30:50;15.07;;;7.22;;
69463;SDS011;56665;41.106;16.688;2024-01-07T09:33:54;11.33;;;5.60;;
69463;SDS011;56665;41.106;16.688;2024-01-07T09:36:58;9.65;;;6.22;;
69463;SDS011;56665;41.106;16.688;2024-01-07T09:40:02;11.75;;;6.35;;
69463;SDS011;56665;41.106;16.688;2024-01-07T09:43:08;12.43;;;6.00;;
69463;SDS011;56665;41.106;16.688;2024-01-07T09:46:12;13.27;;;6.07;;
69463;SDS011;56665;41.106;16.688;2024-01-07T09:49:17;9.73;;;5.40;;
69463;SDS011;56665;41.106;16.688;2024-01-07T09:52:21;9.80;;;5.32;;
69463;SDS011;56665;41.106;16.688;2024-01-07T09:55:26;9.50;;;5.43;;
69463;SDS011;56665;41.106;16.688;2024-01-07T09:58:34;14.23;;;6.13;;
69463;SDS011;56665;41.106;16.688;2024-01-07T10:01:37;9.85;;;6.35;;
69463;SDS011;56665;41.106;16.688;2024-01-07T10:04:42;11.43;;;7.20;;
69463;SDS011;56665;41.106;16.688;2024-01-07T10:07:47;13.25;;;7.53;;
69463;SDS011;56665;41.106;16.688;2024-01-07T10:10:50;14.15;;;8.48;;
69463;SDS011;56665;41.106;16.688;2024-01-07T10:13:54;16.38;;;9.57;;
69463;SDS011;56665;41.106;16.688;2024-01-07T10:16:58;14.68;;;8.80;;
69463;SDS011;56665;41.106;16.688;2024-01-07T10:20:03;16.20;;;7.93;;
69463;SDS011;56665;41.106;16.688;2024-01-07T10:23:08;14.00;;;8.77;;
69463;SDS011;56665;41.106;16.688;2024-01-07T10:26:12;13.40;;;7.88;;
69463;SDS011;56665;41.106;16.688;2024-01-07T10:29:16;12.65;;;7.85;;
69463;SDS011;56665;41.106;16.688;2024-01-07T10:32:20;13.50;;;7.85;;
69463;SDS011;56665;41.106;16.688;2024-01-07T10:35:28;11.10;;;6.60;;
69463;SDS011;56665;41.106;16.688;2024-01-07T10:38:36;12.68;;;6.93;;
69463;SDS011;56665;41.106;16.688;2024-01-07T10:41:40;11.68;;;7.43;;
69463;SDS011;56665;41.106;16.688;2024-01-07T10:44:45;13.68;;;7.03;;
69463;SDS011;56665;41.106;16.688;2024-01-07T10:47:49;10.52;;;6.38;;
69463;SDS011;56665;41.106;16.688;2024-01-07T10:50:54;12.80;;;7.73;;
69463;SDS011;56665;41.106;16.688;2024-01-07T10:54:00;15.18;;;7.97;;
69463;SDS011;56665;41.106;16.688;2024-01-07T10:57:06;15.18;;;7.25;;
69463;SDS011;56665;41.106;16.688;2024-01-07T11:00:15;16.13;;;8.18;;
69463;SDS011;56665;41.106;16.688;2024-01-07T11:07:33;15.17;;;8.93;;
69463;SDS011;56665;41.106;16.688;2024-01-07T11:11:13;18.35;;;9.35;;
69463;SDS011;56665;41.106;16.688;2024-01-07T11:14:40;14.38;;;8.70;;
69463;SDS011;56665;41.106;16.688;2024-01-07T11:17:56;16.33;;;9.30;;
69463;SDS011;56665;41.106;16.688;2024-01-07T11:21:00;16.02;;;9.15;;
69463;SDS011;56665;41.106;16.688;2024-01-07T11:24:06;17.00;;;9.47;;
69463;SDS011;56665;41.106;16.688;2024-01-07T11:27:10;17.25;;;10.20;;
69463;SDS011;56665;41.106;16.688;2024-01-07T11:30:20;19.55;;;10.90;;
69463;SDS011;56665;41.106;16.688;2024-01-07T11:33:24;16.40;;;9.90;;
69463;SDS011;56665;41.106;16.688;2024-01-07T11:36:35;12.77;;;8.82;;
69463;SDS011;56665;41.106;16.688;2024-01-07T11:39:43;12.67;;;8.10;;
69463;SDS011;56665;41.106;16.688;2024-01-07T11:42:50;11.88;;;7.93;;
69463;SDS011;56665;41.106;16.688;2024-01-07T11:45:55;13.55;;;9.18;;
69463;SDS011;56665;41.106;16.688;2024-01-07T11:48:59;12.25;;;8.60;;
69463;SDS011;56665;41.106;16.688;2024-01-07T11:52:04;15.52;;;10.20;;
69463;SDS011;56665;41.106;16.688;2024-01-07T11:55:07;16.47;;;11.43;;
69463;SDS011;56665;41.106;16.688;2024-01-07T11:58:12;14.25;;;10.48;;
69463;SDS011;56665;41.106;16.688;2024-01-07T12:01:16;14.52;;;9.15;;
69463;SDS011;56665;41.106;16.688;2024-01-07T12:04:20;12.05;;;8.05;;
69463;SDS011;56665;41.106;16.688;2024-01-07T12:07:23;13.43;;;8.52;;
69463;SDS011;56665;41.106;16.688;2024-01-07T12:10:27;12.77;;;8.80;;
69463;SDS011;56665;41.106;16.688;2024-01-07T12:13:32;21.13;;;12.02;;
69463;SDS011;56665;41.106;16.688;2024-01-07T12:16:36;28.33;;;15.52;;
69463;SDS011;56665;41.106;16.688;2024-01-07T12:19:40;33.65;;;16.05;;
69463;SDS011;56665;41.106;16.688;2024-01-07T12:22:45;28.38;;;14.43;;
69463;SDS011;56665;41.106;16.688;2024-01-07T12:25:48;26.83;;;13.73;;
69463;SDS011;56665;41.106;16.688;2024-01-07T12:28:57;25.55;;;13.30;;
69463;SDS011;56665;41.106;16.688;2024-01-07T12:32:04;26.35;;;13.52;;
69463;SDS011;56665;41.106;16.688;2024-01-07T12:35:08;28.48;;;15.50;;
69463;SDS011;56665;41.106;16.688;2024-01-07T12:38:12;34.67;;;19.30;;
69463;SDS011;56665;41.106;16.688;2024-01-07T12:41:15;24.53;;;14.30;;
69463;SDS011;56665;41.106;16.688;2024-01-07T12:44:19;25.25;;;14.73;;
69463;SDS011;56665;41.106;16.688;2024-01-07T12:47:23;12.32;;;7.53;;
69463;SDS011;56665;41.106;16.688;2024-01-07T12:50:27;10.55;;;6.28;;
69463;SDS011;56665;41.106;16.688;2024-01-07T12:53:33;5.38;;;3.10;;
69463;SDS011;56665;41.106;16.688;2024-01-07T12:56:36;5.13;;;2.27;;
69463;SDS011;56665;41.106;16.688;2024-01-07T12:59:40;2.97;;;1.75;;
69463;SDS011;56665;41.106;16.688;2024-01-07T13:02:44;4.45;;;2.38;;
69463;SDS011;56665;41.106;16.688;2024-01-07T13:05:48;3.42;;;1.67;;
69463;SDS011;56665;41.106;16.688;2024-01-07T13:08:54;3.00;;;1.67;;
69463;SDS011;56665;41.106;16.688;2024-01-07T13:11:58;3.30;;;1.97;;
69463;SDS011;56665;41.106;16.688;2024-01-07T13:15:03;2.90;;;1.40;;
69463;SDS011;56665;41.106;16.688;2024-01-07T13:18:07;4.00;;;2.30;;
69463;SDS011;56665;41.106;16.688;2024-01-07T13:21:11;6.82;;;3.50;;
69463;SDS011;56665;41.106;16.688;2024-01-07T13:24:15;6.57;;;3.15;;
69463;SDS011;56665;41.106;16.688;2024-01-07T13:27:19;5.93;;;2.97;;
69463;SDS011;56665;41.106;16.688;2024-01-07T13:30:23;6.35;;;2.30;;
69463;SDS011;56665;41.106;16.688;2024-01-07T13:33:27;3.65;;;2.00;;
69463;SDS011;56665;41.106;16.688;2024-01-07T13:36:30;3.38;;;1.63;;
69463;SDS011;56665;41.106;16.688;2024-01-07T13:39:34;3.17;;;1.50;;
69463;SDS011;56665;41.106;16.688;2024-01-07T13:42:38;2.27;;;0.90;;
69463;SDS011;56665;41.106;16.688;2024-01-07T13:45:42;2.08;;;0.77;;
69463;SDS011;56665;41.106;16.688;2024-01-07T13:48:46;2.25;;;0.70;;
69463;SDS011;56665;41.106;16.688;2024-01-07T13:51:50;3.00;;;1.10;;
69463;SDS011;56665;41.106;16.688;2024-01-07T13:54:53;2.47;;;0.85;;
69463;SDS011;56665;41.106;16.688;2024-01-07T13:57:57;3.30;;;1.70;;
69463;SDS011;56665;41.106;16.688;2024-01-07T14:01:02;3.28;;;1.50;;
69463;SDS011;56665;41.106;16.688;2024-01-07T14:04:06;3.78;;;1.77;;
69463;SDS011;56665;41.106;16.688;2024-01-07T14:07:10;3.22;;;1.60;;
69463;SDS011;56665;41.106;16.688;2024-01-07T14:10:14;3.38;;;1.77;;
69463;SDS011;56665;41.106;16.688;2024-01-07T14:13:17;4.63;;;1.60;;
69463;SDS011;56665;41.106;16.688;2024-01-07T14:16:22;3.05;;;1.40;;
69463;SDS011;56665;41.106;16.688;2024-01-07T14:19:26;3.85;;;1.58;;
69463;SDS011;56665;41.106;16.688;2024-01-07T14:22:30;3.25;;;1.50;;
69463;SDS011;56665;41.106;16.688;2024-01-07T14:25:34;2.53;;;1.20;;
69463;SDS011;56665;41.106;16.688;2024-01-07T14:28:37;2.70;;;1.40;;
69463;SDS011;56665;41.106;16.688;2024-01-07T14:31:41;3.15;;;1.48;;
69463;SDS011;56665;41.106;16.688;2024-01-07T14:34:45;4.45;;;1.70;;
69463;SDS011;56665;41.106;16.688;2024-01-07T14:37:49;2.15;;;1.10;;
69463;SDS011;56665;41.106;16.688;2024-01-07T14:40:53;3.22;;;1.20;;
69463;SDS011;56665;41.106;16.688;2024-01-07T14:43:56;2.70;;;0.93;;
69463;SDS011;56665;41.106;16.688;2024-01-07T14:47:00;2.72;;;1.00;;
69463;SDS011;56665;41.106;16.688;2024-01-07T14:50:04;2.67;;;1.25;;
69463;SDS011;56665;41.106;16.688;2024-01-07T14:53:08;3.35;;;1.08;;
69463;SDS011;56665;41.106;16.688;2024-01-07T14:56:12;3.83;;;1.33;;
69463;SDS011;56665;41.106;16.688;2024-01-07T14:59:17;4.33;;;2.10;;
69463;SDS011;56665;41.106;16.688;2024-01-07T15:02:21;5.60;;;2.25;;
69463;SDS011;56665;41.106;16.688;2024-01-07T15:05:24;5.78;;;2.92;;
69463;SDS011;56665;41.106;16.688;2024-01-07T15:08:28;5.55;;;2.30;;
69463;SDS011;56665;41.106;16.688;2024-01-07T15:11:32;3.80;;;1.90;;
69463;SDS011;56665;41.106;16.688;2024-01-07T15:14:37;3.93;;;1.27;;
69463;SDS011;56665;41.106;16.688;2024-01-07T15:17:41;3.72;;;1.20;;
69463;SDS011;56665;41.106;16.688;2024-01-07T15:20:44;2.85;;;1.02;;
69463;SDS011;56665;41.106;16.688;2024-01-07T15:23:48;4.45;;;2.17;;
69463;SDS011;56665;41.106;16.688;2024-01-07T15:26:52;7.68;;;3.83;;
69463;SDS011;56665;41.106;16.688;2024-01-07T15:29:56;4.37;;;2.33;;
69463;SDS011;56665;41.106;16.688;2024-01-07T15:33:00;3.88;;;1.80;;
69463;SDS011;56665;41.106;16.688;2024-01-07T15:36:04;3.53;;;1.63;;
69463;SDS011;56665;41.106;16.688;2024-01-07T15:39:08;4.13;;;1.40;;
69463;SDS011;56665;41.106;16.688;2024-01-07T15:42:15;3.67;;;1.65;;
69463;SDS011;56665;41.106;16.688;2024-01-07T15:45:19;7.13;;;3.00;;
69463;SDS011;56665;41.106;16.688;2024-01-07T15:48:22;4.90;;;1.90;;
69463;SDS011;56665;41.106;16.688;2024-01-07T15:51:27;3.42;;;1.30;;
69463;SDS011;56665;41.106;16.688;2024-01-07T15:54:31;3.72;;;1.55;;
69463;SDS011;56665;41.106;16.688;2024-01-07T15:57:35;7.43;;;3.65;;
69463;SDS011;56665;41.106;16.688;2024-01-07T16:00:39;6.00;;;3.03;;
69463;SDS011;56665;41.106;16.688;2024-01-07T16:03:43;7.35;;;2.55;;
69463;SDS011;56665;41.106;16.688;2024-01-07T16:06:47;8.50;;;4.50;;
69463;SDS011;56665;41.106;16.688;2024-01-07T16:09:52;10.93;;;5.32;;
69463;SDS011;56665;41.106;16.688;2024-01-07T16:12:55;12.25;;;6.78;;
69463;SDS011;56665;41.106;16.688;2024-01-07T16:15:59;11.30;;;6.47;;
69463;SDS011;56665;41.106;16.688;2024-01-07T16:19:03;7.80;;;4.20;;
69463;SDS011;56665;41.106;16.688;2024-01-07T16:22:08;11.25;;;5.40;;
69463;SDS011;56665;41.106;16.688;2024-01-07T16:25:13;12.98;;;5.90;;
69463;SDS011;56665;41.106;16.688;2024-01-07T16:28:17;8.95;;;4.72;;
69463;SDS011;56665;41.106;16.688;2024-01-07T16:31:21;7.00;;;3.90;;
69463;SDS011;56665;41.106;16.688;2024-01-07T16:34:25;8.75;;;4.95;;
69463;SDS011;56665;41.106;16.688;2024-01-07T16:37:28;11.13;;;6.00;;
69463;SDS011;56665;41.106;16.688;2024-01-07T16:40:32;10.98;;;6.80;;
69463;SDS011;56665;41.106;16.688;2024-01-07T16:43:36;30.17;;;14.32;;
69463;SDS011;56665;41.106;16.688;2024-01-07T16:46:40;19.17;;;10.17;;
69463;SDS011;56665;41.106;16.688;2024-01-07T16:49:44;25.33;;;11.40;;
69463;SDS011;56665;41.106;16.688;2024-01-07T16:52:47;22.30;;;11.25;;
69463;SDS011;56665;41.106;16.688;2024-01-07T16:55:51;14.85;;;8.13;;
69463;SDS011;56665;41.106;16.688;2024-01-07T16:58:55;10.90;;;6.93;;
69463;SDS011;56665;41.106;16.688;2024-01-07T17:01:59;15.50;;;8.70;;
69463;SDS011;56665;41.106;16.688;2024-01-07T17:05:03;14.73;;;8.48;;
69463;SDS011;56665;41.106;16.688;2024-01-07T17:08:07;13.07;;;8.07;;
69463;SDS011;56665;41.106;16.688;2024-01-07T17:11:11;16.52;;;9.38;;
69463;SDS011;56665;41.106;16.688;2024-01-07T17:14:14;18.17;;;10.10;;
69463;SDS011;56665;41.106;16.688;2024-01-07T17:17:18;15.40;;;8.00;;
69463;SDS011;56665;41.106;16.688;2024-01-07T17:20:24;17.75;;;8.82;;
69463;SDS011;56665;41.106;16.688;2024-01-07T17:23:28;18.88;;;9.68;;
69463;SDS011;56665;41.106;16.688;2024-01-07T17:26:32;17.65;;;8.07;;
69463;SDS011;56665;41.106;16.688;2024-01-07T17:29:36;17.08;;;7.93;;
69463;SDS011;56665;41.106;16.688;2024-01-07T17:32:40;12.87;;;6.60;;
69463;SDS011;56665;41.106;16.688;2024-01-07T17:35:44;12.60;;;5.80;;
69463;SDS011;56665;41.106;16.688;2024-01-07T17:38:47;10.55;;;5.90;;
69463;SDS011;56665;41.106;16.688;2024-01-07T17:41:51;10.32;;;4.78;;
69463;SDS011;56665;41.106;16.688;2024-01-07T17:44:55;9.55;;;5.25;;
69463;SDS011;56665;41.106;16.688;2024-01-07T17:47:59;12.37;;;6.07;;
69463;SDS011;56665;41.106;16.688;2024-01-07T17:51:05;14.63;;;6.83;;
69463;SDS011;56665;41.106;16.688;2024-01-07T17:54:11;10.68;;;5.28;;
69463;SDS011;56665;41.106;16.688;2024-01-07T17:57:15;18.23;;;9.35;;
69463;SDS011;56665;41.106;16.688;2024-01-07T18:00:19;17.73;;;9.23;;
69463;SDS011;56665;41.106;16.688;2024-01-07T18:03:23;29.90;;;15.53;;